sensor_id;sensor_type;location;lat;lon;timestamp;temperature;humidity
27164;DHT22;14685;50.618;7.024;2023-03-14T01:08:03;12.90;99.90
27164;DHT22;14685;50.618;7.024;2023-03-14T01:10:31;13.10;99.90
27164;DHT22;14685;50.618;7.024;2023-03-14T01:12:58;13.10;99.90
27164;DHT22;14685;50.618;7.024;2023-03-14T01:15:25;13.20;99.90
27164;DHT22;14685;50.618;7.024;2023-03-14T01:17:52;13.20;99.90
27164;DHT22;14685;50.618;7.024;2023-03-14T01:20:20;13.30;99.90
27164;DHT22;14685;50.618;7.024;2023-03-14T01:22:47;13.30;99.90
27164;DHT22;14685;50.618;7.024;2023-03-14T01:25:17;13.10;99.90
27164;DHT22;14685;50.618;7.024;2023-03-14T01:27:46;13.10;99.90
27164;DHT22;14685;50.618;7.024;2023-03-14T01:30:13;13.00;99.90
27164;DHT22;14685;50.618;7.024;2023-03-14T01:32:40;13.00;99.90
27164;DHT22;14685;50.618;7.024;2023-03-14T01:35:08;13.00;99.90
27164;DHT22;14685;50.618;7.024;2023-03-14T01:37:34;12.90;99.90
27164;DHT22;14685;50.618;7.024;2023-03-14T01:40:02;12.90;99.90
27164;DHT22;14685;50.618;7.024;2023-03-14T01:42:31;12.90;99.90
27164;DHT22;14685;50.618;7.024;2023-03-14T01:45:00;12.90;99.90
27164;DHT22;14685;50.618;7.024;2023-03-14T01:47:31;12.90;99.90
27164;DHT22;14685;50.618;7.024;2023-03-14T01:50:04;12.80;99.90
27164;DHT22;14685;50.618;7.024;2023-03-14T01:52:39;12.80;99.90
27164;DHT22;14685;50.618;7.024;2023-03-14T01:57:47;12.80;99.90
27164;DHT22;14685;50.618;7.024;2023-03-14T02:00:19;12.80;99.90
27164;DHT22;14685;50.618;7.024;2023-03-14T02:03:05;12.80;99.90
27164;DHT22;14685;50.618;7.024;2023-03-14T02:05:36;12.70;99.90
27164;DHT22;14685;50.618;7.024;2023-03-14T02:08:19;12.80;99.90
27164;DHT22;14685;50.618;7.024;2023-03-14T02:10:48;12.70;99.90
27164;DHT22;14685;50.618;7.024;2023-03-14T02:13:17;12.70;99.90
27164;DHT22;14685;50.618;7.024;2023-03-14T02:15:45;12.60;99.90
27164;DHT22;14685;50.618;7.024;2023-03-14T02:18:13;12.60;99.90
27164;DHT22;14685;50.618;7.024;2023-03-14T02:21:00;12.60;99.90
27164;DHT22;14685;50.618;7.024;2023-03-14T02:23:58;12.50;99.90
27164;DHT22;14685;50.618;7.024;2023-03-14T02:26:41;12.30;99.90
27164;DHT22;14685;50.618;7.024;2023-03-14T02:31:38;12.40;99.90
27164;DHT22;14685;50.618;7.024;2023-03-14T02:34:05;12.40;99.90
27164;DHT22;14685;50.618;7.024;2023-03-14T02:36:33;12.40;99.90
27164;DHT22;14685;50.618;7.024;2023-03-14T02:39:12;12.40;99.90
27164;DHT22;14685;50.618;7.024;2023-03-14T02:41:40;12.30;99.90
27164;DHT22;14685;50.618;7.024;2023-03-14T03:01:24;11.90;99.90
27164;DHT22;14685;50.618;7.024;2023-03-14T03:03:51;12.10;99.90
27164;DHT22;14685;50.618;7.024;2023-03-14T03:06:20;11.90;99.90
27164;DHT22;14685;50.618;7.024;2023-03-14T03:08:47;11.90;99.90
27164;DHT22;14685;50.618;7.024;2023-03-14T03:13:42;11.80;99.90
27164;DHT22;14685;50.618;7.024;2023-03-14T03:16:09;11.80;99.90
27164;DHT22;14685;50.618;7.024;2023-03-14T03:18:37;11.80;99.90
27164;DHT22;14685;50.618;7.024;2023-03-14T03:21:04;11.70;99.90
27164;DHT22;14685;50.618;7.024;2023-03-14T03:23:33;11.70;99.90
27164;DHT22;14685;50.618;7.024;2023-03-14T03:25:59;11.70;99.90
27164;DHT22;14685;50.618;7.024;2023-03-14T03:28:28;11.70;99.90
27164;DHT22;14685;50.618;7.024;2023-03-14T03:30:55;11.70;99.90
27164;DHT22;14685;50.618;7.024;2023-03-14T03:33:21;11.70;99.90
27164;DHT22;14685;50.618;7.024;2023-03-14T03:35:50;11.70;99.90
27164;DHT22;14685;50.618;7.024;2023-03-14T03:38:19;11.80;99.90
27164;DHT22;14685;50.618;7.024;2023-03-14T03:40:46;11.70;99.90
27164;DHT22;14685;50.618;7.024;2023-03-14T03:43:13;11.80;99.90
27164;DHT22;14685;50.618;7.024;2023-03-14T03:45:40;11.70;99.90
27164;DHT22;14685;50.618;7.024;2023-03-14T03:48:07;11.80;99.90
27164;DHT22;14685;50.618;7.024;2023-03-14T03:50:34;11.80;99.90
27164;DHT22;14685;50.618;7.024;2023-03-14T03:53:01;11.80;99.90
27164;DHT22;14685;50.618;7.024;2023-03-14T03:55:28;11.90;99.90
27164;DHT22;14685;50.618;7.024;2023-03-14T03:57:55;11.80;99.90
27164;DHT22;14685;50.618;7.024;2023-03-14T04:00:22;11.80;99.90
27164;DHT22;14685;50.618;7.024;2023-03-14T04:02:48;11.70;99.90
27164;DHT22;14685;50.618;7.024;2023-03-14T04:05:15;11.70;99.90
27164;DHT22;14685;50.618;7.024;2023-03-14T04:07:42;11.70;99.90
27164;DHT22;14685;50.618;7.024;2023-03-14T04:10:09;11.70;99.90
27164;DHT22;14685;50.618;7.024;2023-03-14T04:12:36;11.80;99.90
27164;DHT22;14685;50.618;7.024;2023-03-14T04:15:03;11.80;99.90
27164;DHT22;14685;50.618;7.024;2023-03-14T04:17:30;11.90;99.90
27164;DHT22;14685;50.618;7.024;2023-03-14T04:19:57;11.80;99.90
27164;DHT22;14685;50.618;7.024;2023-03-14T04:22:24;11.80;99.90
27164;DHT22;14685;50.618;7.024;2023-03-14T04:24:51;11.80;99.90
27164;DHT22;14685;50.618;7.024;2023-03-14T04:27:18;11.80;99.90
27164;DHT22;14685;50.618;7.024;2023-03-14T04:29:44;11.80;99.90
27164;DHT22;14685;50.618;7.024;2023-03-14T04:32:11;11.70;99.90
27164;DHT22;14685;50.618;7.024;2023-03-14T04:34:38;11.70;99.90
27164;DHT22;14685;50.618;7.024;2023-03-14T04:37:05;11.80;99.90
27164;DHT22;14685;50.618;7.024;2023-03-14T04:39:32;11.70;99.90
27164;DHT22;14685;50.618;7.024;2023-03-14T04:41:58;11.70;99.90
27164;DHT22;14685;50.618;7.024;2023-03-14T04:44:26;11.80;99.90
27164;DHT22;14685;50.618;7.024;2023-03-14T04:46:52;11.80;99.90
27164;DHT22;14685;50.618;7.024;2023-03-14T04:49:19;11.90;99.90
27164;DHT22;14685;50.618;7.024;2023-03-14T04:51:46;11.90;99.90
27164;DHT22;14685;50.618;7.024;2023-03-14T04:54:13;11.90;99.90
27164;DHT22;14685;50.618;7.024;2023-03-14T04:56:40;11.90;99.90
27164;DHT22;14685;50.618;7.024;2023-03-14T04:59:06;11.80;99.90
27164;DHT22;14685;50.618;7.024;2023-03-14T05:01:35;11.80;99.90
27164;DHT22;14685;50.618;7.024;2023-03-14T05:04:02;11.80;99.90
27164;DHT22;14685;50.618;7.024;2023-03-14T05:06:29;11.70;99.90
27164;DHT22;14685;50.618;7.024;2023-03-14T05:08:55;11.70;99.90
27164;DHT22;14685;50.618;7.024;2023-03-14T05:11:22;11.70;99.90
27164;DHT22;14685;50.618;7.024;2023-03-14T05:13:49;11.60;99.90
27164;DHT22;14685;50.618;7.024;2023-03-14T05:16:16;11.50;99.90
27164;DHT22;14685;50.618;7.024;2023-03-14T05:18:43;11.40;99.90
27164;DHT22;14685;50.618;7.024;2023-03-14T05:21:10;11.40;99.90
27164;DHT22;14685;50.618;7.024;2023-03-14T05:23:37;12.20;99.90
27164;DHT22;14685;50.618;7.024;2023-03-14T05:28:31;11.20;99.90
27164;DHT22;14685;50.618;7.024;2023-03-14T05:30:57;11.20;99.90
27164;DHT22;14685;50.618;7.024;2023-03-14T05:33:24;11.10;99.90
27164;DHT22;14685;50.618;7.024;2023-03-14T05:35:51;11.20;99.90
27164;DHT22;14685;50.618;7.024;2023-03-14T05:38:18;11.10;99.90
27164;DHT22;14685;50.618;7.024;2023-03-14T05:40:45;11.10;99.90
27164;DHT22;14685;50.618;7.024;2023-03-14T05:43:12;11.00;99.90
27164;DHT22;14685;50.618;7.024;2023-03-14T05:45:40;11.00;99.90
27164;DHT22;14685;50.618;7.024;2023-03-14T05:48:07;11.00;99.90
27164;DHT22;14685;50.618;7.024;2023-03-14T05:50:34;11.00;99.90
27164;DHT22;14685;50.618;7.024;2023-03-14T05:53:01;10.90;99.90
27164;DHT22;14685;50.618;7.024;2023-03-14T05:55:28;10.90;99.90
27164;DHT22;14685;50.618;7.024;2023-03-14T05:57:55;10.90;99.90
27164;DHT22;14685;50.618;7.024;2023-03-14T06:00:22;10.90;99.90
27164;DHT22;14685;50.618;7.024;2023-03-14T06:02:52;10.90;99.90
27164;DHT22;14685;50.618;7.024;2023-03-14T06:05:23;10.90;99.90
27164;DHT22;14685;50.618;7.024;2023-03-14T06:07:53;10.90;99.90
27164;DHT22;14685;50.618;7.024;2023-03-14T06:10:19;10.90;99.90
27164;DHT22;14685;50.618;7.024;2023-03-14T06:12:46;10.90;99.90
27164;DHT22;14685;50.618;7.024;2023-03-14T06:15:13;10.90;99.90
27164;DHT22;14685;50.618;7.024;2023-03-14T06:17:40;10.90;99.90
27164;DHT22;14685;50.618;7.024;2023-03-14T06:20:08;10.90;99.90
27164;DHT22;14685;50.618;7.024;2023-03-14T06:22:35;10.90;99.90
27164;DHT22;14685;50.618;7.024;2023-03-14T06:25:02;10.90;99.90
27164;DHT22;14685;50.618;7.024;2023-03-14T06:27:30;10.90;99.90
27164;DHT22;14685;50.618;7.024;2023-03-14T06:29:57;10.90;99.90
27164;DHT22;14685;50.618;7.024;2023-03-14T06:32:24;10.90;99.90
27164;DHT22;14685;50.618;7.024;2023-03-14T06:34:51;10.90;99.90
27164;DHT22;14685;50.618;7.024;2023-03-14T06:37:20;10.90;99.90
27164;DHT22;14685;50.618;7.024;2023-03-14T06:39:46;10.90;99.90
27164;DHT22;14685;50.618;7.024;2023-03-14T06:42:13;10.80;99.90
27164;DHT22;14685;50.618;7.024;2023-03-14T06:44:40;10.90;99.90
27164;DHT22;14685;50.618;7.024;2023-03-14T06:47:07;10.90;99.90
27164;DHT22;14685;50.618;7.024;2023-03-14T06:49:34;10.90;99.90
27164;DHT22;14685;50.618;7.024;2023-03-14T06:52:01;11.00;99.90
27164;DHT22;14685;50.618;7.024;2023-03-14T06:54:28;11.00;99.90
27164;DHT22;14685;50.618;7.024;2023-03-14T06:56:54;11.10;99.90
27164;DHT22;14685;50.618;7.024;2023-03-14T06:59:21;11.10;99.90
27164;DHT22;14685;50.618;7.024;2023-03-14T07:01:48;11.10;99.90
27164;DHT22;14685;50.618;7.024;2023-03-14T07:04:17;11.10;99.90
27164;DHT22;14685;50.618;7.024;2023-03-14T07:06:44;11.10;99.90
27164;DHT22;14685;50.618;7.024;2023-03-14T07:09:14;11.10;99.90
27164;DHT22;14685;50.618;7.024;2023-03-14T07:11:44;11.20;99.90
27164;DHT22;14685;50.618;7.024;2023-03-14T07:14:11;11.20;99.90
27164;DHT22;14685;50.618;7.024;2023-03-14T07:16:38;11.20;99.90
27164;DHT22;14685;50.618;7.024;2023-03-14T07:19:04;11.30;99.90
27164;DHT22;14685;50.618;7.024;2023-03-14T07:21:31;11.30;99.90
27164;DHT22;14685;50.618;7.024;2023-03-14T07:23:59;11.30;99.90
27164;DHT22;14685;50.618;7.024;2023-03-14T07:26:26;11.50;99.90
27164;DHT22;14685;50.618;7.024;2023-03-14T07:28:52;11.60;99.90
27164;DHT22;14685;50.618;7.024;2023-03-14T07:31:19;11.70;99.90
27164;DHT22;14685;50.618;7.024;2023-03-14T07:33:46;11.90;99.90
27164;DHT22;14685;50.618;7.024;2023-03-14T07:36:13;12.10;99.90
27164;DHT22;14685;50.618;7.024;2023-03-14T07:38:40;12.20;99.90
27164;DHT22;14685;50.618;7.024;2023-03-14T07:41:08;12.50;99.90
27164;DHT22;14685;50.618;7.024;2023-03-14T07:43:35;12.60;99.90
27164;DHT22;14685;50.618;7.024;2023-03-14T07:46:02;12.70;99.90
27164;DHT22;14685;50.618;7.024;2023-03-14T07:48:29;12.80;99.90
27164;DHT22;14685;50.618;7.024;2023-03-14T07:50:56;13.10;99.90
27164;DHT22;14685;50.618;7.024;2023-03-14T07:53:24;13.10;99.90
27164;DHT22;14685;50.618;7.024;2023-03-14T07:55:52;13.40;99.90
27164;DHT22;14685;50.618;7.024;2023-03-14T07:58:20;13.60;99.90
27164;DHT22;14685;50.618;7.024;2023-03-14T08:00:49;13.90;99.90
27164;DHT22;14685;50.618;7.024;2023-03-14T08:03:16;14.00;99.90
27164;DHT22;14685;50.618;7.024;2023-03-14T08:05:43;14.10;99.90
27164;DHT22;14685;50.618;7.024;2023-03-14T08:08:11;14.30;99.90
27164;DHT22;14685;50.618;7.024;2023-03-14T08:10:39;14.50;99.90
27164;DHT22;14685;50.618;7.024;2023-03-14T08:13:06;14.80;99.90
27164;DHT22;14685;50.618;7.024;2023-03-14T08:15:33;15.00;99.90
27164;DHT22;14685;50.618;7.024;2023-03-14T08:18:00;15.00;99.90
27164;DHT22;14685;50.618;7.024;2023-03-14T08:20:28;15.00;99.90
27164;DHT22;14685;50.618;7.024;2023-03-14T08:22:56;15.00;99.90
27164;DHT22;14685;50.618;7.024;2023-03-14T08:25:25;15.00;99.90
27164;DHT22;14685;50.618;7.024;2023-03-14T08:27:52;15.10;99.90
27164;DHT22;14685;50.618;7.024;2023-03-14T08:30:21;15.10;99.90
27164;DHT22;14685;50.618;7.024;2023-03-14T08:32:48;15.20;99.90
27164;DHT22;14685;50.618;7.024;2023-03-14T08:35:15;15.20;99.90
27164;DHT22;14685;50.618;7.024;2023-03-14T08:37:42;15.20;99.90
27164;DHT22;14685;50.618;7.024;2023-03-14T08:40:10;15.10;99.90
27164;DHT22;14685;50.618;7.024;2023-03-14T08:42:39;15.00;99.90
27164;DHT22;14685;50.618;7.024;2023-03-14T08:45:07;14.90;99.90
27164;DHT22;14685;50.618;7.024;2023-03-14T08:47:35;14.90;99.90
27164;DHT22;14685;50.618;7.024;2023-03-14T08:50:03;14.80;99.90
27164;DHT22;14685;50.618;7.024;2023-03-14T08:52:31;14.80;99.90
27164;DHT22;14685;50.618;7.024;2023-03-14T08:54:58;14.70;99.90
27164;DHT22;14685;50.618;7.024;2023-03-14T08:57:26;14.70;99.90
27164;DHT22;14685;50.618;7.024;2023-03-14T08:59:56;14.70;99.90
27164;DHT22;14685;50.618;7.024;2023-03-14T09:02:25;14.60;99.90
27164;DHT22;14685;50.618;7.024;2023-03-14T09:04:53;14.60;99.90
27164;DHT22;14685;50.618;7.024;2023-03-14T09:07:19;14.50;99.90
27164;DHT22;14685;50.618;7.024;2023-03-14T09:09:46;14.50;99.90
27164;DHT22;14685;50.618;7.024;2023-03-14T09:12:13;14.50;99.90
27164;DHT22;14685;50.618;7.024;2023-03-14T09:14:40;14.50;99.90
27164;DHT22;14685;50.618;7.024;2023-03-14T09:17:07;14.40;99.90
27164;DHT22;14685;50.618;7.024;2023-03-14T09:19:34;14.40;99.90
27164;DHT22;14685;50.618;7.024;2023-03-14T09:22:01;14.40;99.90
27164;DHT22;14685;50.618;7.024;2023-03-14T09:24:28;14.40;99.90
27164;DHT22;14685;50.618;7.024;2023-03-14T09:26:55;14.40;99.90
27164;DHT22;14685;50.618;7.024;2023-03-14T09:29:23;14.40;99.90
27164;DHT22;14685;50.618;7.024;2023-03-14T09:31:51;14.50;99.90
27164;DHT22;14685;50.618;7.024;2023-03-14T09:34:18;14.50;99.90
27164;DHT22;14685;50.618;7.024;2023-03-14T09:36:45;14.50;99.90
27164;DHT22;14685;50.618;7.024;2023-03-14T09:46:16;14.60;99.90
27164;DHT22;14685;50.618;7.024;2023-03-14T09:48:44;14.50;99.90
27164;DHT22;14685;50.618;7.024;2023-03-14T09:51:14;14.60;99.90
27164;DHT22;14685;50.618;7.024;2023-03-14T09:53:43;14.60;99.90
27164;DHT22;14685;50.618;7.024;2023-03-14T09:56:17;14.60;99.90
27164;DHT22;14685;50.618;7.024;2023-03-14T09:59:00;14.50;99.90
27164;DHT22;14685;50.618;7.024;2023-03-14T10:01:30;14.40;99.90
27164;DHT22;14685;50.618;7.024;2023-03-14T10:04:09;14.20;99.90
27164;DHT22;14685;50.618;7.024;2023-03-14T10:06:36;14.10;99.90
27164;DHT22;14685;50.618;7.024;2023-03-14T10:09:03;14.20;99.90
27164;DHT22;14685;50.618;7.024;2023-03-14T10:11:32;14.00;99.90
27164;DHT22;14685;50.618;7.024;2023-03-14T10:16:37;13.80;99.90
27164;DHT22;14685;50.618;7.024;2023-03-14T10:19:14;13.30;99.90
27164;DHT22;14685;50.618;7.024;2023-03-14T10:21:42;13.60;99.90
27164;DHT22;14685;50.618;7.024;2023-03-14T10:24:26;13.50;99.90
27164;DHT22;14685;50.618;7.024;2023-03-14T10:27:02;13.40;99.90
27164;DHT22;14685;50.618;7.024;2023-03-14T10:29:31;13.40;99.90
27164;DHT22;14685;50.618;7.024;2023-03-14T10:32:03;13.40;99.90
27164;DHT22;14685;50.618;7.024;2023-03-14T10:34:36;13.50;99.90
27164;DHT22;14685;50.618;7.024;2023-03-14T10:37:21;13.40;99.90
27164;DHT22;14685;50.618;7.024;2023-03-14T10:40:02;13.10;99.90
27164;DHT22;14685;50.618;7.024;2023-03-14T10:42:38;13.20;99.90
27164;DHT22;14685;50.618;7.024;2023-03-14T10:47:49;12.80;99.90
27164;DHT22;14685;50.618;7.024;2023-03-14T10:50:35;12.80;99.90
27164;DHT22;14685;50.618;7.024;2023-03-14T10:53:04;12.70;99.90
27164;DHT22;14685;50.618;7.024;2023-03-14T10:55:43;12.70;99.90
27164;DHT22;14685;50.618;7.024;2023-03-14T10:58:40;12.70;99.90
27164;DHT22;14685;50.618;7.024;2023-03-14T11:01:39;12.70;99.90
27164;DHT22;14685;50.618;7.024;2023-03-14T11:06:55;12.70;99.90
27164;DHT22;14685;50.618;7.024;2023-03-14T11:12:38;12.60;99.90
27164;DHT22;14685;50.618;7.024;2023-03-14T11:23:16;12.40;99.90
27164;DHT22;14685;50.618;7.024;2023-03-14T11:28:57;12.50;99.90
27164;DHT22;14685;50.618;7.024;2023-03-14T11:31:32;12.40;99.90
27164;DHT22;14685;50.618;7.024;2023-03-14T11:34:29;12.50;99.90
27164;DHT22;14685;50.618;7.024;2023-03-14T11:37:05;12.50;99.90
27164;DHT22;14685;50.618;7.024;2023-03-14T11:39:41;12.50;99.90
27164;DHT22;14685;50.618;7.024;2023-03-14T11:42:16;12.60;99.90
27164;DHT22;14685;50.618;7.024;2023-03-14T11:44:46;12.70;99.90
27164;DHT22;14685;50.618;7.024;2023-03-14T11:48:05;12.70;99.90
27164;DHT22;14685;50.618;7.024;2023-03-14T11:50:35;12.80;99.90
27164;DHT22;14685;50.618;7.024;2023-03-14T11:53:11;12.80;99.90
27164;DHT22;14685;50.618;7.024;2023-03-14T11:55:42;12.90;99.90
27164;DHT22;14685;50.618;7.024;2023-03-14T11:58:34;12.80;99.90
27164;DHT22;14685;50.618;7.024;2023-03-14T12:01:07;12.60;99.90
27164;DHT22;14685;50.618;7.024;2023-03-14T12:04:02;12.50;99.90
27164;DHT22;14685;50.618;7.024;2023-03-14T12:06:40;12.50;99.90
27164;DHT22;14685;50.618;7.024;2023-03-14T12:09:11;12.50;99.90
27164;DHT22;14685;50.618;7.024;2023-03-14T12:11:47;12.50;99.90
27164;DHT22;14685;50.618;7.024;2023-03-14T12:14:36;12.60;99.90
27164;DHT22;14685;50.618;7.024;2023-03-14T12:17:26;12.50;99.90
27164;DHT22;14685;50.618;7.024;2023-03-14T12:20:05;12.60;99.90
27164;DHT22;14685;50.618;7.024;2023-03-14T12:22:42;12.50;99.90
27164;DHT22;14685;50.618;7.024;2023-03-14T12:25:30;12.60;99.90
27164;DHT22;14685;50.618;7.024;2023-03-14T12:28:20;12.50;99.90
27164;DHT22;14685;50.618;7.024;2023-03-14T12:30:48;12.50;99.90
27164;DHT22;14685;50.618;7.024;2023-03-14T12:35:56;12.20;99.90
27164;DHT22;14685;50.618;7.024;2023-03-14T12:41:36;11.90;99.90
27164;DHT22;14685;50.618;7.024;2023-03-14T12:46:59;11.80;99.90
27164;DHT22;14685;50.618;7.024;2023-03-14T12:49:32;11.80;99.90
27164;DHT22;14685;50.618;7.024;2023-03-14T12:52:02;11.70;99.90
27164;DHT22;14685;50.618;7.024;2023-03-14T12:54:46;11.80;99.90
27164;DHT22;14685;50.618;7.024;2023-03-14T12:57:37;11.70;99.90
27164;DHT22;14685;50.618;7.024;2023-03-14T13:00:20;11.70;99.90
27164;DHT22;14685;50.618;7.024;2023-03-14T13:02:50;11.70;99.90
27164;DHT22;14685;50.618;7.024;2023-03-14T13:05:21;11.70;99.90
27164;DHT22;14685;50.618;7.024;2023-03-14T13:10:22;11.80;99.90
27164;DHT22;14685;50.618;7.024;2023-03-14T13:12:54;11.70;99.90
27164;DHT22;14685;50.618;7.024;2023-03-14T13:15:40;11.80;99.90
27164;DHT22;14685;50.618;7.024;2023-03-14T13:18:12;11.80;99.90
27164;DHT22;14685;50.618;7.024;2023-03-14T13:23:36;11.80;99.90
27164;DHT22;14685;50.618;7.024;2023-03-14T13:26:11;11.80;99.90
27164;DHT22;14685;50.618;7.024;2023-03-14T13:28:39;11.80;99.90
27164;DHT22;14685;50.618;7.024;2023-03-14T13:31:22;11.90;99.90
27164;DHT22;14685;50.618;7.024;2023-03-14T13:34:00;11.80;99.90
27164;DHT22;14685;50.618;7.024;2023-03-14T13:36:28;11.80;99.90
27164;DHT22;14685;50.618;7.024;2023-03-14T13:38:59;11.70;99.90
27164;DHT22;14685;50.618;7.024;2023-03-14T13:41:27;11.70;99.90
27164;DHT22;14685;50.618;7.024;2023-03-14T13:44:21;11.60;99.90
27164;DHT22;14685;50.618;7.024;2023-03-14T13:46:49;11.60;99.90
27164;DHT22;14685;50.618;7.024;2023-03-14T13:49:22;11.60;99.90
27164;DHT22;14685;50.618;7.024;2023-03-14T13:51:50;11.50;99.90
27164;DHT22;14685;50.618;7.024;2023-03-14T13:54:19;11.50;99.90
27164;DHT22;14685;50.618;7.024;2023-03-14T13:56:47;11.50;99.90
27164;DHT22;14685;50.618;7.024;2023-03-14T13:59:25;11.50;99.90
27164;DHT22;14685;50.618;7.024;2023-03-14T14:01:57;11.50;99.90
27164;DHT22;14685;50.618;7.024;2023-03-14T14:04:26;11.50;99.90
27164;DHT22;14685;50.618;7.024;2023-03-14T14:06:58;11.50;99.90
27164;DHT22;14685;50.618;7.024;2023-03-14T14:09:38;11.50;99.90
27164;DHT22;14685;50.618;7.024;2023-03-14T14:15:17;11.40;99.90
27164;DHT22;14685;50.618;7.024;2023-03-14T14:17:53;11.40;99.90
27164;DHT22;14685;50.618;7.024;2023-03-14T14:20:31;11.40;99.90
27164;DHT22;14685;50.618;7.024;2023-03-14T14:23:03;11.40;99.90
27164;DHT22;14685;50.618;7.024;2023-03-14T14:25:31;11.40;99.90
27164;DHT22;14685;50.618;7.024;2023-03-14T14:28:14;11.40;99.90
27164;DHT22;14685;50.618;7.024;2023-03-14T14:30:41;11.40;99.90
27164;DHT22;14685;50.618;7.024;2023-03-14T14:33:18;11.30;99.90
27164;DHT22;14685;50.618;7.024;2023-03-14T14:35:57;11.20;99.90
27164;DHT22;14685;50.618;7.024;2023-03-14T14:38:25;11.10;99.90
27164;DHT22;14685;50.618;7.024;2023-03-14T14:40:55;11.00;99.90
27164;DHT22;14685;50.618;7.024;2023-03-14T14:43:28;10.90;99.90
27164;DHT22;14685;50.618;7.024;2023-03-14T14:45:55;10.80;99.90
27164;DHT22;14685;50.618;7.024;2023-03-14T14:48:26;10.80;99.90
27164;DHT22;14685;50.618;7.024;2023-03-14T14:51:01;10.70;99.90
27164;DHT22;14685;50.618;7.024;2023-03-14T14:53:38;10.70;99.90
27164;DHT22;14685;50.618;7.024;2023-03-14T14:56:21;10.60;99.90
27164;DHT22;14685;50.618;7.024;2023-03-14T14:58:58;10.60;99.90
27164;DHT22;14685;50.618;7.024;2023-03-14T15:01:39;10.50;99.90
27164;DHT22;14685;50.618;7.024;2023-03-14T15:19:11;10.30;99.90
27164;DHT22;14685;50.618;7.024;2023-03-14T15:21:51;10.10;99.90
27164;DHT22;14685;50.618;7.024;2023-03-14T15:24:17;10.00;99.90
27164;DHT22;14685;50.618;7.024;2023-03-14T15:26:47;10.00;99.90
27164;DHT22;14685;50.618;7.024;2023-03-14T15:29:14;10.00;99.90
27164;DHT22;14685;50.618;7.024;2023-03-14T15:31:41;10.00;99.90
27164;DHT22;14685;50.618;7.024;2023-03-14T15:34:11;10.00;99.90
27164;DHT22;14685;50.618;7.024;2023-03-14T15:36:38;10.00;99.90
27164;DHT22;14685;50.618;7.024;2023-03-14T15:39:06;9.90;99.90
27164;DHT22;14685;50.618;7.024;2023-03-14T15:44:00;9.70;99.90
27164;DHT22;14685;50.618;7.024;2023-03-14T15:46:27;9.50;99.90
27164;DHT22;14685;50.618;7.024;2023-03-14T15:48:58;9.50;99.90
27164;DHT22;14685;50.618;7.024;2023-03-14T15:51:25;9.50;99.90
27164;DHT22;14685;50.618;7.024;2023-03-14T15:53:55;9.40;99.90
27164;DHT22;14685;50.618;7.024;2023-03-14T15:56:21;9.30;99.90
27164;DHT22;14685;50.618;7.024;2023-03-14T15:58:52;9.40;99.90
27164;DHT22;14685;50.618;7.024;2023-03-14T16:01:19;9.50;99.90
27164;DHT22;14685;50.618;7.024;2023-03-14T16:03:47;9.50;99.90
27164;DHT22;14685;50.618;7.024;2023-03-14T16:06:15;9.50;99.90
27164;DHT22;14685;50.618;7.024;2023-03-14T16:08:42;9.50;99.90
27164;DHT22;14685;50.618;7.024;2023-03-14T16:11:11;9.50;99.90
27164;DHT22;14685;50.618;7.024;2023-03-14T16:13:38;9.60;99.90
27164;DHT22;14685;50.618;7.024;2023-03-14T16:16:08;9.60;99.90
27164;DHT22;14685;50.618;7.024;2023-03-14T16:18:36;9.60;99.90
27164;DHT22;14685;50.618;7.024;2023-03-14T16:21:17;9.70;99.90
27164;DHT22;14685;50.618;7.024;2023-03-14T16:23:44;9.70;99.90
27164;DHT22;14685;50.618;7.024;2023-03-14T16:26:14;9.80;99.90
27164;DHT22;14685;50.618;7.024;2023-03-14T16:28:41;9.80;99.90
27164;DHT22;14685;50.618;7.024;2023-03-14T16:31:11;9.80;99.90
27164;DHT22;14685;50.618;7.024;2023-03-14T16:33:38;9.80;99.90
27164;DHT22;14685;50.618;7.024;2023-03-14T16:36:07;9.90;99.90
27164;DHT22;14685;50.618;7.024;2023-03-14T16:38:35;9.80;99.90
27164;DHT22;14685;50.618;7.024;2023-03-14T16:41:10;9.80;99.90
27164;DHT22;14685;50.618;7.024;2023-03-14T16:43:37;9.90;99.90
27164;DHT22;14685;50.618;7.024;2023-03-14T16:46:06;9.80;99.90
27164;DHT22;14685;50.618;7.024;2023-03-14T16:48:35;9.90;99.90
27164;DHT22;14685;50.618;7.024;2023-03-14T16:51:02;9.80;99.90
27164;DHT22;14685;50.618;7.024;2023-03-14T16:53:29;9.80;99.90
27164;DHT22;14685;50.618;7.024;2023-03-14T16:55:57;9.80;99.90
27164;DHT22;14685;50.618;7.024;2023-03-14T16:58:26;9.80;99.90
27164;DHT22;14685;50.618;7.024;2023-03-14T17:00:53;9.90;99.90
27164;DHT22;14685;50.618;7.024;2023-03-14T17:03:24;9.90;99.90
27164;DHT22;14685;50.618;7.024;2023-03-14T17:05:53;9.90;99.90
27164;DHT22;14685;50.618;7.024;2023-03-14T17:08:20;9.90;99.90
27164;DHT22;14685;50.618;7.024;2023-03-14T17:10:47;9.90;99.90
27164;DHT22;14685;50.618;7.024;2023-03-14T17:13:14;9.90;99.90
27164;DHT22;14685;50.618;7.024;2023-03-14T17:15:45;9.90;99.90
27164;DHT22;14685;50.618;7.024;2023-03-14T17:18:12;9.80;99.90
27164;DHT22;14685;50.618;7.024;2023-03-14T17:20:40;9.80;99.90
27164;DHT22;14685;50.618;7.024;2023-03-14T17:23:07;9.70;99.90
27164;DHT22;14685;50.618;7.024;2023-03-14T17:25:35;9.60;99.90
27164;DHT22;14685;50.618;7.024;2023-03-14T17:28:05;9.50;99.90
27164;DHT22;14685;50.618;7.024;2023-03-14T17:30:32;9.50;99.90
27164;DHT22;14685;50.618;7.024;2023-03-14T17:33:02;9.50;99.90
27164;DHT22;14685;50.618;7.024;2023-03-14T17:35:30;9.50;99.90
27164;DHT22;14685;50.618;7.024;2023-03-14T17:37:57;9.50;99.90
27164;DHT22;14685;50.618;7.024;2023-03-14T17:40:25;9.50;99.90
27164;DHT22;14685;50.618;7.024;2023-03-14T17:42:52;9.60;99.90
27164;DHT22;14685;50.618;7.024;2023-03-14T17:45:20;9.60;99.90
27164;DHT22;14685;50.618;7.024;2023-03-14T17:47:51;9.60;99.90
27164;DHT22;14685;50.618;7.024;2023-03-14T17:50:18;9.60;99.90
27164;DHT22;14685;50.618;7.024;2023-03-14T17:52:44;9.50;99.90
27164;DHT22;14685;50.618;7.024;2023-03-14T17:55:11;9.50;99.90
27164;DHT22;14685;50.618;7.024;2023-03-14T17:57:38;9.40;99.90
27164;DHT22;14685;50.618;7.024;2023-03-14T18:00:07;9.30;99.90
27164;DHT22;14685;50.618;7.024;2023-03-14T18:02:35;9.30;99.90
27164;DHT22;14685;50.618;7.024;2023-03-14T18:05:02;9.20;99.90
27164;DHT22;14685;50.618;7.024;2023-03-14T18:07:33;9.20;99.90
27164;DHT22;14685;50.618;7.024;2023-03-14T18:10:01;9.10;99.90
27164;DHT22;14685;50.618;7.024;2023-03-14T18:12:28;9.10;99.90
27164;DHT22;14685;50.618;7.024;2023-03-14T18:14:56;9.10;99.90
27164;DHT22;14685;50.618;7.024;2023-03-14T18:17:23;9.10;99.90
27164;DHT22;14685;50.618;7.024;2023-03-14T18:19:50;9.10;99.90
27164;DHT22;14685;50.618;7.024;2023-03-14T18:22:17;9.10;99.90
27164;DHT22;14685;50.618;7.024;2023-03-14T18:24:44;9.10;99.90
27164;DHT22;14685;50.618;7.024;2023-03-14T18:27:14;9.10;99.90
27164;DHT22;14685;50.618;7.024;2023-03-14T18:29:41;9.20;99.90